Time;durP1;ratioP1;P1;durP2;ratioP2;P2;SDS_P1;SDS_P2;PMS_P1;PMS_P2;Temp;Humidity;BMP_temperature;BMP_pressure;BME280_temperature;BME280_humidity;BME280_pressure;Samples;Min_cycle;Max_cycle;Signal;HPM_P1;HPM_P2
2023/01/15 00:01:52;;;;;;;;;;;7.30;89.80;;;;;;5015228;28;20415;-89
2023/01/15 00:04:17;;;;;;;;;;;7.20;89.40;;;;;;5025502;28;19977;-91
2023/01/15 00:06:43;;;;;;;;;;;7.10;89.40;;;;;;5022229;28;19918;-89
2023/01/15 00:09:12;;;;;;;;;;;7.00;89.80;;;;;;5024592;28;19917;-87
2023/01/15 00:11:40;;;;;;;;;;;7.00;89.70;;;;;;5022951;28;19917;-89
2023/01/15 00:14:11;;;;;;;;;;;6.90;89.60;;;;;;5019752;28;19902;-94
2023/01/15 00:16:39;;;;;;;;;;;6.90;89.90;;;;;;5036792;28;19910;-92
2023/01/15 00:19:09;;;;;;;;;;;6.80;89.70;;;;;;5022024;28;19926;-89
2023/01/15 00:21:41;;;;;;;;;;;6.70;89.00;;;;;;5023544;28;19914;-94
2023/01/15 00:29:39;;;;;;;;;;;6.60;89.30;;;;;;5026835;28;19923;-92
2023/01/15 00:32:22;;;;;;;;;;;6.70;89.00;;;;;;5017741;28;19960;-93
2023/01/15 00:37:47;;;;;;;;;;;6.70;89.90;;;;;;5011870;28;19925;-90
2023/01/15 00:40:37;;;;;;;;;;;6.70;90.10;;;;;;5025101;28;19917;-90
2023/01/15 00:43:06;;;;;;;;;;;6.80;89.80;;;;;;5022596;28;19924;-90
2023/01/15 00:45:32;;;;;;;;;;;6.70;89.50;;;;;;5022283;28;19914;-90
2023/01/15 00:47:57;;;;;;;;;;;6.70;89.90;;;;;;5023664;28;19921;-91
2023/01/15 00:50:28;;;;;;;;;;;6.80;89.80;;;;;;5009647;28;19928;-90
2023/01/15 00:52:54;;;;;;;;;;;6.80;90.00;;;;;;5024848;28;19914;-93
2023/01/15 00:55:29;;;;;;;;;;;6.80;89.90;;;;;;5028305;28;19956;-90
2023/01/15 00:57:57;;;;;;;;;;;6.80;89.30;;;;;;5026169;28;19977;-90
2023/01/15 01:00:22;;;;;;;;;;;6.80;89.30;;;;;;5028019;22;20649;-83
2023/01/15 01:02:48;;;;;;;;;;;6.80;89.40;;;;;;5027096;28;19917;-85
2023/01/15 01:05:13;;;;;;;;;;;6.90;89.30;;;;;;5027910;28;20430;-84
2023/01/15 01:07:39;;;;;;;;;;;6.80;88.10;;;;;;5027581;28;19913;-82
2023/01/15 01:10:04;;;;;;;;;;;6.80;87.90;;;;;;5028405;28;19922;-85
2023/01/15 01:12:30;;;;;;;;;;;6.80;87.20;;;;;;5022150;28;20008;-85
2023/01/15 01:14:55;;;;;;;;;;;6.80;87.30;;;;;;5029938;28;19913;-85
2023/01/15 01:17:21;;;;;;;;;;;6.80;87.80;;;;;;5028570;28;20337;-84
2023/01/15 01:19:49;;;;;;;;;;;6.80;87.60;;;;;;5040264;28;20358;-85
2023/01/15 01:22:17;;;;;;;;;;;6.80;87.60;;;;;;5028387;28;20429;-85
2023/01/15 01:24:43;;;;;;;;;;;6.80;88.00;;;;;;5031860;28;19980;-85
2023/01/15 01:27:28;;;;;;;;;;;6.80;88.30;;;;;;5037347;28;20000;-85
2023/01/15 01:29:54;;;;;;;;;;;6.80;88.20;;;;;;5019678;28;20397;-84
2023/01/15 01:32:22;;;;;;;;;;;6.80;88.60;;;;;;5022115;28;19913;-85
2023/01/15 01:35:10;;;;;;;;;;;;;;;;;;;;;
2023/01/15 01:37:52;;;;;;;;;;;6.90;88.50;;;;;;5030791;28;19906;-84
2023/01/15 01:40:18;;;;;;;;;;;6.90;87.90;;;;;;5030383;28;19960;-85
2023/01/15 01:42:44;;;;;;;;;;;6.90;87.90;;;;;;5027285;28;19944;-84
2023/01/15 01:45:18;;;;;;;;;;;6.90;87.70;;;;;;5042499;28;19897;-83
2023/01/15 01:47:44;;;;;;;;;;;6.90;87.70;;;;;;5051280;28;19917;-84
2023/01/15 01:50:12;;;;;;;;;;;6.90;87.40;;;;;;5034563;28;19925;-85
2023/01/15 01:52:48;;;;;;;;;;;6.80;86.30;;;;;;5025685;28;19920;-84
2023/01/15 01:55:33;;;;;;;;;;;6.80;86.20;;;;;;5029821;28;19913;-84
2023/01/15 01:58:00;;;;;;;;;;;6.90;86.50;;;;;;5050443;28;19940;-84
2023/01/15 02:00:25;;;;;;;;;;;6.80;86.20;;;;;;5037711;28;19924;-84
2023/01/15 02:02:51;;;;;;;;;;;6.80;86.20;;;;;;5031770;28;19970;-84
2023/01/15 02:05:24;;;;;;;;;;;6.80;86.70;;;;;;5023613;28;20191;-84
2023/01/15 02:07:49;;;;;;;;;;;6.80;86.10;;;;;;5043212;28;19927;-84
2023/01/15 02:10:15;;;;;;;;;;;6.80;86.40;;;;;;5052109;28;19932;-84
2023/01/15 02:12:41;;;;;;;;;;;6.80;85.80;;;;;;5049494;28;19952;-84
2023/01/15 02:15:27;;;;;;;;;;;6.80;85.80;;;;;;5039298;28;20016;-84
2023/01/15 02:18:06;;;;;;;;;;;6.90;85.60;;;;;;5045381;28;19917;-85
2023/01/15 02:20:40;;;;;;;;;;;6.80;86.20;;;;;;5035485;28;19913;-85
2023/01/15 02:23:28;;;;;;;;;;;6.80;85.90;;;;;;5029861;28;19917;-83
2023/01/15 02:26:12;;;;;;;;;;;6.80;86.10;;;;;;5022239;28;19919;-85
2023/01/15 02:28:39;;;;;;;;;;;6.90;86.30;;;;;;5058761;28;20007;-85
2023/01/15 02:31:26;;;;;;;;;;;6.80;85.60;;;;;;5034341;28;19917;-84
2023/01/15 02:33:56;;;;;;;;;;;6.80;85.40;;;;;;5049158;28;19999;-84
2023/01/15 02:36:23;;;;;;;;;;;6.80;85.30;;;;;;5020450;28;19913;-85
2023/01/15 02:38:50;;;;;;;;;;;6.80;85.50;;;;;;5042988;28;19924;-83
2023/01/15 02:41:17;;;;;;;;;;;6.80;85.80;;;;;;5051765;28;19913;-84
2023/01/15 02:43:51;;;;;;;;;;;6.80;86.20;;;;;;5030341;28;19923;-84
2023/01/15 02:46:18;;;;;;;;;;;6.80;85.30;;;;;;5033052;28;19913;-83
2023/01/15 02:48:45;;;;;;;;;;;6.90;85.30;;;;;;5046528;28;19921;-84
2023/01/15 02:51:17;;;;;;;;;;;6.80;85.10;;;;;;5023168;28;19921;-84
2023/01/15 02:53:44;;;;;;;;;;;6.80;85.50;;;;;;5045860;28;19999;-83
2023/01/15 02:56:21;;;;;;;;;;;6.90;85.00;;;;;;5037776;28;20263;-84
2023/01/15 02:58:48;;;;;;;;;;;6.80;85.10;;;;;;5022891;28;19914;-85
2023/01/15 03:01:18;;;;;;;;;;;6.80;85.80;;;;;;5029253;28;19924;-84
2023/01/15 03:03:50;;;;;;;;;;;6.80;85.70;;;;;;5054069;28;19913;-83
2023/01/15 03:06:15;;;;;;;;;;;6.80;85.20;;;;;;5024475;28;19960;-84
2023/01/15 03:08:41;;;;;;;;;;;6.80;85.00;;;;;;5029549;28;19905;-83
2023/01/15 03:11:08;;;;;;;;;;;6.80;85.10;;;;;;5053140;28;20075;-82
2023/01/15 03:13:52;;;;;;;;;;;6.80;85.10;;;;;;5033669;28;19921;-84
2023/01/15 03:16:34;;;;;;;;;;;6.80;85.10;;;;;;5033489;28;20454;-83
2023/01/15 03:19:00;;;;;;;;;;;6.80;85.40;;;;;;5028152;28;19913;-84
2023/01/15 03:21:28;;;;;;;;;;;6.90;84.90;;;;;;5033214;28;19920;-84
2023/01/15 03:23:55;;;;;;;;;;;6.80;84.90;;;;;;5029334;28;19913;-83
2023/01/15 03:26:20;;;;;;;;;;;6.80;84.60;;;;;;5031583;28;19920;-83
2023/01/15 03:28:47;;;;;;;;;;;6.80;85.30;;;;;;5048506;28;19917;-84
2023/01/15 03:31:13;;;;;;;;;;;6.90;84.20;;;;;;5055124;28;19925;-83
2023/01/15 03:33:39;;;;;;;;;;;6.90;84.00;;;;;;5031502;28;19913;-83
2023/01/15 03:36:04;;;;;;;;;;;6.80;84.60;;;;;;5040855;28;19924;-84
2023/01/15 03:38:31;;;;;;;;;;;6.90;84.60;;;;;;5060251;28;20429;-84
2023/01/15 03:41:02;;;;;;;;;;;6.90;84.30;;;;;;5032738;28;19968;-84
2023/01/15 03:43:46;;;;;;;;;;;6.90;84.10;;;;;;5054728;28;19972;-84
2023/01/15 03:46:32;;;;;;;;;;;6.80;84.50;;;;;;5041516;28;19913;-83
2023/01/15 03:49:03;;;;;;;;;;;6.80;84.80;;;;;;5030821;28;19912;-83
2023/01/15 03:51:41;;;;;;;;;;;6.70;85.00;;;;;;5054394;28;19913;-84
2023/01/15 03:54:10;;;;;;;;;;;6.80;84.70;;;;;;5035029;28;19913;-84
2023/01/15 03:56:54;;;;;;;;;;;6.80;84.40;;;;;;5032035;28;19912;-83
2023/01/15 03:59:21;;;;;;;;;;;6.80;84.80;;;;;;5060908;28;19913;-83
2023/01/15 04:01:48;;;;;;;;;;;6.70;84.80;;;;;;5071437;28;19920;-84
2023/01/15 04:04:14;;;;;;;;;;;6.80;84.80;;;;;;5037447;28;19955;-84
2023/01/15 04:06:40;;;;;;;;;;;6.80;84.80;;;;;;5053238;28;19909;-85
2023/01/15 04:09:07;;;;;;;;;;;6.80;84.70;;;;;;5037116;28;19912;-82
2023/01/15 04:11:32;;;;;;;;;;;6.80;84.80;;;;;;5027931;28;19916;-83
2023/01/15 04:13:58;;;;;;;;;;;6.80;84.50;;;;;;5028218;28;20378;-83
2023/01/15 04:16:25;;;;;;;;;;;6.70;84.60;;;;;;5049373;28;19909;-83
2023/01/15 04:18:51;;;;;;;;;;;6.70;85.00;;;;;;5024753;28;19923;-83
2023/01/15 04:21:16;;;;;;;;;;;6.70;84.60;;;;;;5050701;28;19972;-84
2023/01/15 04:23:42;;;;;;;;;;;6.60;84.40;;;;;;5052555;28;19981;-83
2023/01/15 04:26:07;;;;;;;;;;;6.70;84.20;;;;;;5043763;28;19921;-84
2023/01/15 04:28:33;;;;;;;;;;;6.70;84.60;;;;;;5059258;28;19921;-84
2023/01/15 04:30:58;;;;;;;;;;;6.70;84.60;;;;;;5066136;28;19919;-83
2023/01/15 04:33:24;;;;;;;;;;;6.70;84.50;;;;;;5038109;28;19912;-83
2023/01/15 04:35:50;;;;;;;;;;;6.70;84.50;;;;;;5052010;28;20043;-84
2023/01/15 04:38:16;;;;;;;;;;;6.70;83.90;;;;;;5035816;28;19924;-84
2023/01/15 04:46:11;;;;;;;;;;;6.70;84.70;;;;;;5066835;28;19959;-84
2023/01/15 04:48:39;;;;;;;;;;;6.70;84.60;;;;;;5056858;28;19916;-84
2023/01/15 04:51:05;;;;;;;;;;;6.80;83.90;;;;;;5027831;28;20325;-83
2023/01/15 04:53:31;;;;;;;;;;;6.70;84.00;;;;;;5025444;28;19919;-84
2023/01/15 04:56:00;;;;;;;;;;;6.70;84.30;;;;;;5057614;28;19914;-83
2023/01/15 04:58:26;;;;;;;;;;;6.70;84.30;;;;;;5074346;28;19912;-82
2023/01/15 05:00:51;;;;;;;;;;;6.80;83.80;;;;;;5092345;28;19942;-82
2023/01/15 05:03:17;;;;;;;;;;;6.70;83.90;;;;;;5053459;28;19921;-83
2023/01/15 05:05:42;;;;;;;;;;;6.70;84.00;;;;;;5034294;28;19921;-83
2023/01/15 05:08:08;;;;;;;;;;;6.70;84.50;;;;;;5051951;28;19986;-83
2023/01/15 05:10:33;;;;;;;;;;;6.60;84.90;;;;;;5033027;28;19916;-82
2023/01/15 05:12:59;;;;;;;;;;;6.70;84.80;;;;;;5032347;28;19999;-83
2023/01/15 05:15:24;;;;;;;;;;;6.70;84.50;;;;;;5043975;28;19935;-82
2023/01/15 05:17:49;;;;;;;;;;;6.60;84.80;;;;;;5062454;28;19924;-83
2023/01/15 05:20:15;;;;;;;;;;;6.60;84.50;;;;;;5042225;28;20004;-83
2023/01/15 05:22:40;;;;;;;;;;;6.60;84.20;;;;;;5044256;28;20278;-84
2023/01/15 05:25:06;;;;;;;;;;;6.70;84.80;;;;;;5032461;28;19941;-82
2023/01/15 05:27:32;;;;;;;;;;;6.70;83.70;;;;;;5060153;28;19966;-84
2023/01/15 05:29:57;;;;;;;;;;;6.70;83.80;;;;;;5038981;28;19967;-84
2023/01/15 05:32:22;;;;;;;;;;;6.70;83.90;;;;;;5042634;28;19965;-82
2023/01/15 05:34:48;;;;;;;;;;;6.70;84.00;;;;;;5067371;28;19917;-82
2023/01/15 05:37:13;;;;;;;;;;;6.70;83.90;;;;;;5058321;28;20457;-84
2023/01/15 05:39:39;;;;;;;;;;;6.60;83.90;;;;;;5034481;28;20259;-83
2023/01/15 05:42:04;;;;;;;;;;;6.70;84.60;;;;;;5051924;28;19913;-83
2023/01/15 05:44:30;;;;;;;;;;;6.80;83.70;;;;;;5027824;28;19966;-82
2023/01/15 05:47:01;;;;;;;;;;;6.70;83.80;;;;;;5045480;28;20294;-83
2023/01/15 05:49:29;;;;;;;;;;;6.70;84.40;;;;;;5048545;28;19917;-82
2023/01/15 05:51:54;;;;;;;;;;;6.70;83.90;;;;;;5025320;28;19969;-83
2023/01/15 05:54:21;;;;;;;;;;;6.60;83.70;;;;;;5051357;28;20294;-84
2023/01/15 05:56:47;;;;;;;;;;;6.70;83.90;;;;;;5025590;28;20010;-83
2023/01/15 05:59:14;;;;;;;;;;;6.70;83.60;;;;;;5041543;28;19962;-84
2023/01/15 06:01:39;;;;;;;;;;;6.70;83.60;;;;;;5028678;28;19971;-83
2023/01/15 06:04:05;;;;;;;;;;;6.60;83.70;;;;;;5030581;28;19920;-83
2023/01/15 06:06:31;;;;;;;;;;;6.70;83.70;;;;;;5032196;28;19932;-83
2023/01/15 06:08:56;;;;;;;;;;;6.70;83.70;;;;;;5026451;28;19924;-84
2023/01/15 06:11:22;;;;;;;;;;;6.80;83.40;;;;;;5034163;28;20329;-84
2023/01/15 06:13:47;;;;;;;;;;;6.70;83.50;;;;;;5047337;28;19917;-83
2023/01/15 06:16:13;;;;;;;;;;;6.70;83.80;;;;;;5061372;28;19959;-83
2023/01/15 06:18:38;;;;;;;;;;;6.70;84.10;;;;;;5058987;28;19985;-84
2023/01/15 06:21:05;;;;;;;;;;;6.80;83.50;;;;;;5051872;28;20376;-83
2023/01/15 06:23:31;;;;;;;;;;;6.80;83.20;;;;;;5030554;28;19909;-84
2023/01/15 06:26:00;;;;;;;;;;;6.90;83.00;;;;;;5043026;28;20298;-83
2023/01/15 06:28:26;;;;;;;;;;;6.90;82.70;;;;;;5033519;28;19917;-84
2023/01/15 06:30:51;;;;;;;;;;;6.90;83.10;;;;;;5028543;28;20401;-83
2023/01/15 06:33:17;;;;;;;;;;;6.80;82.70;;;;;;5021615;28;19923;-82
2023/01/15 06:35:42;;;;;;;;;;;6.80;82.70;;;;;;5034046;28;19952;-83
2023/01/15 06:38:07;;;;;;;;;;;6.90;82.10;;;;;;5039577;28;19963;-84
2023/01/15 06:40:33;;;;;;;;;;;6.90;82.80;;;;;;5042849;28;20274;-83
2023/01/15 06:48:26;;;;;;;;;;;6.90;81.80;;;;;;5050417;28;19986;-82
2023/01/15 06:50:53;;;;;;;;;;;6.90;82.10;;;;;;5026809;28;20040;-83
2023/01/15 06:53:19;;;;;;;;;;;6.90;81.80;;;;;;5037348;28;19960;-83
2023/01/15 06:55:47;;;;;;;;;;;6.90;81.70;;;;;;5063028;28;19991;-84
2023/01/15 06:58:12;;;;;;;;;;;6.90;82.00;;;;;;5042529;28;19962;-84
2023/01/15 07:00:41;;;;;;;;;;;6.90;81.90;;;;;;5052872;28;19925;-84
2023/01/15 07:03:07;;;;;;;;;;;6.90;82.00;;;;;;5035473;28;19955;-84
2023/01/15 07:05:32;;;;;;;;;;;6.90;82.50;;;;;;5025812;28;19971;-85
2023/01/15 07:07:58;;;;;;;;;;;6.90;82.60;;;;;;5013911;28;19909;-83
2023/01/15 07:10:23;;;;;;;;;;;6.90;81.80;;;;;;5046222;28;20385;-83
2023/01/15 07:12:48;;;;;;;;;;;7.00;81.90;;;;;;5034728;28;19909;-84
2023/01/15 07:15:14;;;;;;;;;;;7.00;82.10;;;;;;5025038;28;19917;-85
2023/01/15 07:17:39;;;;;;;;;;;6.90;82.20;;;;;;5055051;28;20400;-87
2023/01/15 07:20:05;;;;;;;;;;;6.90;82.50;;;;;;5030285;28;19913;-85
2023/01/15 07:22:31;;;;;;;;;;;6.80;82.00;;;;;;5024010;28;19955;-83
2023/01/15 07:24:56;;;;;;;;;;;6.90;81.90;;;;;;5032964;28;19913;-83
2023/01/15 07:27:22;;;;;;;;;;;6.90;81.90;;;;;;5052004;28;20027;-88
2023/01/15 07:29:51;;;;;;;;;;;7.00;81.20;;;;;;5049541;28;19913;-83
2023/01/15 07:32:17;;;;;;;;;;;6.90;81.40;;;;;;5053902;28;20374;-85
2023/01/15 07:34:42;;;;;;;;;;;6.90;81.40;;;;;;5060012;28;19989;-85
2023/01/15 07:37:07;;;;;;;;;;;6.90;81.30;;;;;;5046514;28;19917;-85
2023/01/15 07:39:33;;;;;;;;;;;6.90;81.20;;;;;;5024078;28;19923;-84
2023/01/15 07:50:13;;;;;;;;;;;6.80;81.60;;;;;;5055224;28;20010;-84
2023/01/15 07:52:39;;;;;;;;;;;6.80;81.00;;;;;;5026259;28;19916;-84
2023/01/15 07:55:04;;;;;;;;;;;6.80;81.30;;;;;;5024397;28;20358;-84
2023/01/15 07:57:30;;;;;;;;;;;6.80;81.40;;;;;;5033022;28;19913;-82
2023/01/15 07:59:55;;;;;;;;;;;6.80;80.90;;;;;;5052039;28;19972;-81
2023/01/15 08:02:21;;;;;;;;;;;6.80;80.90;;;;;;5038779;28;19917;-83
2023/01/15 08:04:46;;;;;;;;;;;6.80;81.30;;;;;;5035241;28;19927;-84
2023/01/15 08:07:13;;;;;;;;;;;6.80;81.00;;;;;;5040163;28;19970;-83
2023/01/15 08:09:38;;;;;;;;;;;6.80;80.70;;;;;;5061427;28;19955;-83
2023/01/15 08:17:33;;;;;;;;;;;6.80;80.80;;;;;;5002163;28;19941;-86
2023/01/15 08:19:59;;;;;;;;;;;6.70;81.10;;;;;;5004964;28;19922;-86
2023/01/15 08:22:24;;;;;;;;;;;6.80;81.20;;;;;;5004542;28;19924;-86
2023/01/15 08:24:50;;;;;;;;;;;6.80;80.60;;;;;;5010449;28;19918;-86
2023/01/15 08:27:15;;;;;;;;;;;6.80;80.60;;;;;;4998820;28;19914;-86
2023/01/15 08:29:41;;;;;;;;;;;6.80;81.00;;;;;;5018185;28;20020;-86
2023/01/15 08:32:06;;;;;;;;;;;6.80;80.70;;;;;;5007927;28;19928;-86
2023/01/15 08:34:32;;;;;;;;;;;6.80;80.90;;;;;;5007490;28;19914;-86
2023/01/15 08:36:58;;;;;;;;;;;6.90;80.50;;;;;;5011664;28;20322;-87
2023/01/15 08:39:25;;;;;;;;;;;6.80;80.00;;;;;;5015917;28;19914;-87
2023/01/15 08:41:50;;;;;;;;;;;6.80;80.30;;;;;;5013408;28;19936;-88
2023/01/15 08:44:16;;;;;;;;;;;6.80;79.80;;;;;;5012188;28;20368;-87
2023/01/15 08:46:44;;;;;;;;;;;6.80;79.70;;;;;;5011854;28;19913;-87
2023/01/15 08:49:11;;;;;;;;;;;6.80;78.90;;;;;;5010880;28;19933;-86
2023/01/15 08:51:44;;;;;;;;;;;6.90;78.60;;;;;;5005449;28;19921;-87
2023/01/15 08:54:09;;;;;;;;;;;6.90;79.20;;;;;;5006811;28;19953;-88
2023/01/15 08:56:35;;;;;;;;;;;6.90;79.40;;;;;;5011141;28;19948;-88
2023/01/15 08:59:04;;;;;;;;;;;6.90;79.10;;;;;;5013359;28;19932;-87
2023/01/15 09:01:30;;;;;;;;;;;6.90;79.30;;;;;;5028227;28;19906;-87
2023/01/15 09:04:02;;;;;;;;;;;6.90;78.70;;;;;;5007278;28;19920;-88
2023/01/15 09:06:27;;;;;;;;;;;6.90;78.90;;;;;;5008781;28;19914;-88
2023/01/15 09:08:53;;;;;;;;;;;6.80;77.60;;;;;;5008853;28;19959;-87
2023/01/15 09:11:19;;;;;;;;;;;6.80;76.90;;;;;;5004217;28;20004;-87
2023/01/15 09:13:46;;;;;;;;;;;6.80;77.50;;;;;;5007941;28;19957;-87
2023/01/15 09:16:12;;;;;;;;;;;6.80;77.90;;;;;;5006357;28;20928;-87
2023/01/15 09:18:43;;;;;;;;;;;6.70;78.10;;;;;;5003586;28;19930;-86
2023/01/15 09:21:09;;;;;;;;;;;6.70;78.10;;;;;;5011820;28;19917;-87
2023/01/15 09:23:34;;;;;;;;;;;6.70;78.30;;;;;;5016885;28;19914;-88
2023/01/15 09:26:08;;;;;;;;;;;6.60;78.00;;;;;;5013865;28;19920;-86
2023/01/15 09:31:53;;;;;;;;;;;6.60;78.30;;;;;;4967194;28;19977;-86
2023/01/15 09:34:22;;;;;;;;;;;6.60;77.20;;;;;;4981009;28;19918;-87
2023/01/15 09:36:49;;;;;;;;;;;6.50;76.80;;;;;;5013038;28;20302;-86
2023/01/15 09:39:53;;;;;;;;;;;6.60;76.50;;;;;;5005972;28;19913;-87
2023/01/15 09:42:33;;;;;;;;;;;6.60;76.40;;;;;;4939184;29;19918;-86
2023/01/15 09:45:10;;;;;;;;;;;6.50;76.30;;;;;;4951844;28;19915;-87
2023/01/15 09:50:52;;;;;;;;;;;6.50;75.90;;;;;;4993922;28;19952;-88
2023/01/15 09:53:39;;;;;;;;;;;6.60;76.00;;;;;;4999378;28;19921;-88
2023/01/15 09:56:12;;;;;;;;;;;6.70;75.60;;;;;;5019007;28;19914;-90
2023/01/15 09:58:48;;;;;;;;;;;6.80;75.90;;;;;;5016338;28;19985;-87
2023/01/15 10:01:41;;;;;;;;;;;6.80;75.40;;;;;;5025567;28;19920;-87
2023/01/15 10:04:50;;;;;;;;;;;6.80;76.10;;;;;;5011042;28;20564;-86
2023/01/15 10:23:47;;;;;;;;;;;7.00;76.40;;;;;;2713622;23;19933;-85
2023/01/15 10:26:51;;;;;;;;;;;;;;;;;;;;;
2023/01/15 10:29:59;;;;;;;;;;;7.00;75.50;;;;;;5023582;28;19913;-85
2023/01/15 10:32:32;;;;;;;;;;;7.00;73.90;;;;;;5024429;28;19929;-85
2023/01/15 10:35:31;;;;;;;;;;;7.00;74.10;;;;;;5027406;28;20069;-85
2023/01/15 10:38:21;;;;;;;;;;;7.10;74.60;;;;;;5069599;22;19917;-86
2023/01/15 10:43:52;;;;;;;;;;;7.10;74.30;;;;;;5020377;28;20392;-86
2023/01/15 10:46:32;;;;;;;;;;;7.20;73.70;;;;;;5029662;28;20299;-86
2023/01/15 10:49:19;;;;;;;;;;;7.10;73.00;;;;;;5015866;28;19913;-87
2023/01/15 10:51:48;;;;;;;;;;;7.20;73.70;;;;;;5009345;28;19921;-87
2023/01/15 10:54:29;;;;;;;;;;;7.20;73.70;;;;;;5033460;28;19921;-86
2023/01/15 10:57:15;;;;;;;;;;;7.10;73.90;;;;;;5024862;23;19943;-88
2023/01/15 10:59:49;;;;;;;;;;;7.10;74.00;;;;;;5044282;28;19995;-88
2023/01/15 11:02:39;;;;;;;;;;;7.20;73.60;;;;;;5015365;28;19921;-89
2023/01/15 11:05:28;;;;;;;;;;;7.30;73.10;;;;;;5012143;28;19939;-89
2023/01/15 11:07:54;;;;;;;;;;;7.50;72.30;;;;;;5021999;28;19987;-85
2023/01/15 11:10:20;;;;;;;;;;;7.60;72.10;;;;;;5046437;28;19921;-87
2023/01/15 11:21:17;;;;;;;;;;;7.60;71.10;;;;;;5014072;28;19916;-87
2023/01/15 11:23:43;;;;;;;;;;;7.60;70.00;;;;;;5004989;28;19914;-85
2023/01/15 11:26:09;;;;;;;;;;;7.60;70.60;;;;;;5003227;28;19921;-87
2023/01/15 11:28:35;;;;;;;;;;;7.70;70.40;;;;;;5009375;28;19974;-87
2023/01/15 11:31:00;;;;;;;;;;;7.70;70.20;;;;;;5005773;28;20015;-84
2023/01/15 11:33:26;;;;;;;;;;;7.60;70.80;;;;;;5004883;28;21587;-87
2023/01/15 11:35:57;;;;;;;;;;;7.60;70.30;;;;;;5021296;28;19955;-88
2023/01/15 11:38:30;;;;;;;;;;;7.60;69.90;;;;;;5013208;28;19913;-89
2023/01/15 11:40:59;;;;;;;;;;;7.60;70.40;;;;;;5014018;28;19917;-87
2023/01/15 11:52:04;;;;;;;;;;;7.50;70.40;;;;;;5025722;28;20364;-85
2023/01/15 11:54:31;;;;;;;;;;;7.60;70.50;;;;;;5025489;28;19925;-84
2023/01/15 11:56:57;;;;;;;;;;;7.60;69.80;;;;;;5006874;28;19921;-85
2023/01/15 11:59:23;;;;;;;;;;;7.60;69.90;;;;;;5029897;28;19940;-85
2023/01/15 12:01:49;;;;;;;;;;;7.60;70.00;;;;;;5026756;28;19929;-84
2023/01/15 12:04:34;;;;;;;;;;;7.60;70.20;;;;;;5013869;28;19913;-84
2023/01/15 12:07:00;;;;;;;;;;;7.60;69.70;;;;;;5006757;28;19991;-85
2023/01/15 12:09:30;;;;;;;;;;;7.60;70.30;;;;;;5011114;28;19921;-89
2023/01/15 12:12:08;;;;;;;;;;;7.60;71.10;;;;;;5047829;28;19916;-85
2023/01/15 12:14:33;;;;;;;;;;;7.60;70.70;;;;;;5053138;28;20004;-87
2023/01/15 12:16:59;;;;;;;;;;;7.60;70.30;;;;;;5048893;28;19917;-86
2023/01/15 12:19:52;;;;;;;;;;;7.60;70.20;;;;;;5017877;28;19928;-88
2023/01/15 12:22:43;;;;;;;;;;;7.50;69.90;;;;;;5018952;28;19913;-90
2023/01/15 12:25:30;;;;;;;;;;;7.60;71.00;;;;;;5034794;28;20397;-87
2023/01/15 12:27:58;;;;;;;;;;;7.60;69.80;;;;;;5036262;28;19964;-87
2023/01/15 12:30:33;;;;;;;;;;;7.60;69.90;;;;;;5020020;28;20832;-86
2023/01/15 12:33:25;;;;;;;;;;;7.60;69.70;;;;;;5042454;28;19989;-86
2023/01/15 12:35:59;;;;;;;;;;;7.60;69.30;;;;;;5018680;28;19914;-86
2023/01/15 12:38:53;;;;;;;;;;;7.60;69.70;;;;;;5041778;28;19929;-86
2023/01/15 12:44:59;;;;;;;;;;;7.60;70.20;;;;;;5041358;28;19913;-86
2023/01/15 12:46:57;;;;;;;;;;;7.60;70.20;;;;;;5035512;28;19920;-87
2023/01/15 12:49:41;;;;;;;;;;;7.60;70.00;;;;;;5017993;28;19914;-88
2023/01/15 12:52:09;;;;;;;;;;;7.50;69.30;;;;;;5029009;28;19932;-86
2023/01/15 12:54:46;;;;;;;;;;;7.60;70.70;;;;;;5008534;28;19914;-86
2023/01/15 12:57:16;;;;;;;;;;;7.60;70.40;;;;;;5031297;28;19925;-85
2023/01/15 12:59:48;;;;;;;;;;;7.50;70.00;;;;;;5025786;28;19916;-85
2023/01/15 13:02:19;;;;;;;;;;;7.40;69.90;;;;;;5029265;28;19988;-85
2023/01/15 13:05:11;;;;;;;;;;;7.40;70.40;;;;;;5021856;28;20002;-85
2023/01/15 13:07:42;;;;;;;;;;;7.40;70.30;;;;;;5020496;28;20010;-85
2023/01/15 13:10:19;;;;;;;;;;;7.40;70.20;;;;;;5019464;28;19909;-85
2023/01/15 13:12:44;;;;;;;;;;;7.60;70.90;;;;;;5034820;28;19928;-84
2023/01/15 13:15:14;;;;;;;;;;;7.60;70.30;;;;;;5026281;28;19913;-86
2023/01/15 13:18:03;;;;;;;;;;;7.60;69.50;;;;;;5017884;28;19913;-86
2023/01/15 13:20:46;;;;;;;;;;;7.60;69.80;;;;;;5045829;28;20043;-85
2023/01/15 13:23:12;;;;;;;;;;;7.60;70.20;;;;;;5021321;28;20216;-85
2023/01/15 13:25:45;;;;;;;;;;;7.60;70.00;;;;;;5012034;28;20063;-85
2023/01/15 13:28:26;;;;;;;;;;;7.50;70.50;;;;;;5032066;28;19932;-84
2023/01/15 13:31:05;;;;;;;;;;;7.50;70.60;;;;;;5024517;28;20017;-85
2023/01/15 13:33:30;;;;;;;;;;;7.50;70.90;;;;;;5008683;28;19921;-85
2023/01/15 13:36:25;;;;;;;;;;;7.50;70.80;;;;;;5027398;28;19913;-87
2023/01/15 13:38:53;;;;;;;;;;;7.50;70.50;;;;;;5008531;28;19976;-87
2023/01/15 13:42:30;;;;;;;;;;;7.60;70.20;;;;;;5028936;28;19919;-87
2023/01/15 13:44:11;;;;;;;;;;;7.50;70.30;;;;;;5030364;28;20055;-85
2023/01/15 13:46:36;;;;;;;;;;;7.50;70.40;;;;;;5031691;28;19959;-85
2023/01/15 13:49:04;;;;;;;;;;;7.50;70.50;;;;;;5029636;28;19920;-85
2023/01/15 13:51:36;;;;;;;;;;;7.50;70.40;;;;;;5017490;28;19979;-84
2023/01/15 13:54:01;;;;;;;;;;;7.50;70.80;;;;;;5009664;28;19921;-85
2023/01/15 13:56:31;;;;;;;;;;;7.40;70.80;;;;;;5012199;28;20362;-86
2023/01/15 13:59:01;;;;;;;;;;;7.40;70.70;;;;;;5027367;28;19917;-84
2023/01/15 14:01:29;;;;;;;;;;;7.50;71.00;;;;;;5011888;28;19923;-85
2023/01/15 14:03:59;;;;;;;;;;;7.50;71.00;;;;;;4995390;28;22294;-88
2023/01/15 14:06:36;;;;;;;;;;;7.50;70.60;;;;;;5005669;28;19943;-85
2023/01/15 14:09:03;;;;;;;;;;;7.50;70.30;;;;;;5008447;28;19927;-85
2023/01/15 14:11:48;;;;;;;;;;;7.50;71.00;;;;;;5024185;28;19959;-84
2023/01/15 14:14:13;;;;;;;;;;;7.50;70.90;;;;;;5024309;28;19917;-85
2023/01/15 14:16:47;;;;;;;;;;;7.40;70.80;;;;;;5005031;28;19914;-85
2023/01/15 14:19:18;;;;;;;;;;;7.40;70.80;;;;;;5016890;28;19925;-85
2023/01/15 14:21:55;;;;;;;;;;;7.50;70.10;;;;;;5016842;28;19913;-85
2023/01/15 14:24:40;;;;;;;;;;;7.50;70.40;;;;;;5039893;28;19925;-85
2023/01/15 14:27:17;;;;;;;;;;;7.60;70.10;;;;;;5029732;28;19924;-85
2023/01/15 14:29:46;;;;;;;;;;;7.60;70.30;;;;;;5040180;28;19913;-83
2023/01/15 14:32:30;;;;;;;;;;;7.60;70.20;;;;;;5012076;28;19925;-84
2023/01/15 14:34:57;;;;;;;;;;;7.60;69.60;;;;;;5012267;28;19914;-85
2023/01/15 14:37:29;;;;;;;;;;;7.60;69.60;;;;;;5021894;28;20376;-86
2023/01/15 14:39:57;;;;;;;;;;;7.50;70.10;;;;;;5012295;28;19923;-85
2023/01/15 14:45:10;;;;;;;;;;;7.30;70.20;;;;;;5025343;28;19971;-85
2023/01/15 14:47:44;;;;;;;;;;;7.40;69.70;;;;;;5008150;28;19956;-85
2023/01/15 14:50:39;;;;;;;;;;;7.50;69.60;;;;;;5008190;28;19984;-86
2023/01/15 14:53:14;;;;;;;;;;;7.50;69.70;;;;;;5025750;28;19917;-84
2023/01/15 14:55:44;;;;;;;;;;;7.40;70.20;;;;;;5011513;28;19913;-86
2023/01/15 14:58:15;;;;;;;;;;;7.40;70.30;;;;;;5028529;28;20375;-86
2023/01/15 15:00:42;;;;;;;;;;;7.30;71.00;;;;;;5005286;28;19913;-86
2023/01/15 15:03:20;;;;;;;;;;;7.30;71.00;;;;;;5041646;28;19913;-84
2023/01/15 15:05:46;;;;;;;;;;;7.30;71.20;;;;;;5027145;28;19917;-85
2023/01/15 15:08:17;;;;;;;;;;;7.30;71.20;;;;;;5024330;28;20000;-86
2023/01/15 15:10:43;;;;;;;;;;;7.40;70.00;;;;;;5025091;28;19922;-87
2023/01/15 15:13:16;;;;;;;;;;;7.30;70.30;;;;;;5007572;28;19918;-85
2023/01/15 15:15:41;;;;;;;;;;;7.40;69.90;;;;;;5007041;28;19983;-86
2023/01/15 15:18:13;;;;;;;;;;;7.40;70.40;;;;;;5025205;28;19925;-84
2023/01/15 15:20:46;;;;;;;;;;;7.40;69.90;;;;;;5008050;28;19913;-84
2023/01/15 15:23:16;;;;;;;;;;;7.40;69.50;;;;;;5020479;28;19976;-85
2023/01/15 15:25:42;;;;;;;;;;;7.40;69.50;;;;;;5020084;28;19924;-84
2023/01/15 15:28:11;;;;;;;;;;;7.40;69.50;;;;;;5003247;28;19993;-85
2023/01/15 15:30:40;;;;;;;;;;;7.40;69.50;;;;;;5002386;28;19917;-87
2023/01/15 15:33:11;;;;;;;;;;;7.40;69.60;;;;;;5038611;28;20103;-85
2023/01/15 15:35:39;;;;;;;;;;;7.40;70.00;;;;;;5033148;28;19920;-87
2023/01/15 15:38:04;;;;;;;;;;;7.40;70.10;;;;;;5023314;28;19959;-87
2023/01/15 15:40:34;;;;;;;;;;;7.40;69.50;;;;;;5014028;28;19921;-84
2023/01/15 15:48:41;;;;;;;;;;;7.30;69.50;;;;;;5028989;28;19924;-84
2023/01/15 15:51:26;;;;;;;;;;;7.20;70.20;;;;;;5012127;28;19928;-87
2023/01/15 15:54:01;;;;;;;;;;;7.20;70.70;;;;;;5039874;28;19921;-84
2023/01/15 15:56:27;;;;;;;;;;;7.30;69.90;;;;;;5011183;28;20008;-82
2023/01/15 15:58:54;;;;;;;;;;;7.30;69.90;;;;;;5019838;28;19957;-82
2023/01/15 16:01:19;;;;;;;;;;;7.20;70.30;;;;;;5013385;28;20397;-84
2023/01/15 16:03:47;;;;;;;;;;;7.30;69.90;;;;;;5044512;28;19913;-84
2023/01/15 16:06:17;;;;;;;;;;;7.20;70.40;;;;;;5009778;28;19932;-84
2023/01/15 16:08:50;;;;;;;;;;;7.30;70.30;;;;;;5027348;28;19955;-84
2023/01/15 16:11:15;;;;;;;;;;;7.30;70.30;;;;;;5009432;28;19984;-84
2023/01/15 16:13:46;;;;;;;;;;;7.30;70.50;;;;;;5013344;28;19956;-85
2023/01/15 16:16:12;;;;;;;;;;;7.30;70.70;;;;;;5016024;28;20008;-83
2023/01/15 16:18:48;;;;;;;;;;;7.30;71.30;;;;;;5024655;28;19995;-84